Time;durP1;ratioP1;P1;durP2;ratioP2;P2;SDS_P1;SDS_P2;PMS_P1;PMS_P2;Temp;Humidity;BMP_temperature;BMP_pressure;BME280_temperature;BME280_humidity;BME280_pressure;Samples;Min_cycle;Max_cycle;Signal;HPM_P1;HPM_P2
2023/05/01 00:01:31;;;;;;;7.55;5.38;;;;;;;15.23;57.53;101917.66;4978772;28;20041;-43
2023/05/01 00:03:56;;;;;;;8.35;5.32;;;;;;;15.29;57.71;101912.47;4981759;28;20117;-41
2023/05/01 00:06:22;;;;;;;9.27;5.68;;;;;;;15.33;57.42;101912.50;4977675;28;20042;-41
2023/05/01 00:08:47;;;;;;;9.30;5.80;;;;;;;15.25;57.94;101915.91;4982352;28;20045;-39
2023/05/01 00:11:12;;;;;;;8.65;5.40;;;;;;;15.29;57.41;101910.72;4982762;28;20034;-40
2023/05/01 00:13:38;;;;;;;10.05;6.10;;;;;;;15.23;57.51;101902.78;4979141;28;20031;-41
2023/05/01 00:16:08;;;;;;;8.98;6.10;;;;;;;15.25;57.50;101905.41;4981693;28;20030;-41
2023/05/01 00:18:33;;;;;;;8.63;5.95;;;;;;;15.20;57.38;101896.59;4978936;28;20121;-41
2023/05/01 00:20:58;;;;;;;9.35;5.85;;;;;;;15.08;57.88;101899.09;4985687;28;20571;-43
2023/05/01 00:23:23;;;;;;;8.43;5.90;;;;;;;15.03;58.19;101889.41;4981379;28;20555;-41
2023/05/01 00:25:49;;;;;;;9.63;6.38;;;;;;;15.01;58.17;101899.00;4982833;28;20053;-40
2023/05/01 00:28:16;;;;;;;7.90;6.00;;;;;;;14.91;58.71;101891.03;4980165;28;20077;-38
2023/05/01 00:30:41;;;;;;;9.73;5.65;;;;;;;14.85;59.00;101890.94;4983202;28;20045;-42
2023/05/01 00:33:07;;;;;;;9.25;6.38;;;;;;;14.75;59.89;101887.34;4985030;28;20034;-39
2023/05/01 00:35:34;;;;;;;8.00;6.10;;;;;;;14.70;59.74;101886.38;4980672;28;22424;-42
2023/05/01 00:37:59;;;;;;;9.52;6.22;;;;;;;14.79;59.67;101893.50;4983760;28;20038;-41
2023/05/01 00:40:25;;;;;;;8.55;6.47;;;;;;;14.86;59.73;101883.09;4981482;28;20129;-44
2023/05/01 00:42:51;;;;;;;8.18;5.72;;;;;;;14.87;59.63;101889.22;4983551;28;20038;-41
2023/05/01 00:45:17;;;;;;;7.60;5.72;;;;;;;14.85;59.65;101888.31;4978951;28;20096;-41
2023/05/01 00:47:42;;;;;;;8.98;5.68;;;;;;;14.80;60.11;101880.41;4984775;28;20563;-42
2023/05/01 00:50:08;;;;;;;9.40;6.35;;;;;;;14.79;60.23;101869.88;4983911;28;20034;-42
2023/05/01 00:52:34;;;;;;;8.05;6.30;;;;;;;14.77;60.19;101871.59;4978649;28;20046;-45
2023/05/01 00:54:59;;;;;;;7.90;6.00;;;;;;;14.79;60.34;101859.38;4982528;28;20037;-41
2023/05/01 00:57:25;;;;;;;8.80;6.15;;;;;;;14.81;60.22;101860.28;4978790;28;20412;-43
2023/05/01 00:59:50;;;;;;;10.75;6.32;;;;;;;14.70;60.70;101854.88;4982340;28;20452;-43
2023/05/01 01:02:15;;;;;;;8.95;6.00;;;;;;;14.71;60.45;101856.66;4979764;28;20437;-43
2023/05/01 01:04:43;;;;;;;10.95;6.35;;;;;;;14.69;60.64;101844.38;4983642;28;20549;-39
2023/05/01 01:07:31;;;;;;;8.80;6.40;;;;;;;14.60;60.94;101834.66;4985890;28;20060;-41
2023/05/01 01:10:11;;;;;;;8.68;5.70;;;;;;;14.61;61.39;101828.53;4985333;28;20034;-41
2023/05/01 01:12:43;;;;;;;7.80;5.78;;;;;;;14.59;61.40;101823.25;4978821;28;20129;-44
2023/05/01 01:15:27;;;;;;;9.35;6.40;;;;;;;14.60;61.18;101825.03;4982064;28;20518;-41
2023/05/01 01:17:55;;;;;;;8.65;6.38;;;;;;;14.56;61.16;101815.38;4981519;28;20327;-45
2023/05/01 01:20:24;;;;;;;8.43;6.00;;;;;;;14.56;60.94;101811.88;4982110;28;20496;-41
2023/05/01 01:23:00;;;;;;;9.10;6.00;;;;;;;14.48;61.00;101808.25;4985776;28;20042;-40
2023/05/01 01:26:02;;;;;;;7.90;6.15;;;;;;;14.50;60.82;101803.91;4981170;28;20039;-43
2023/05/01 01:28:56;;;;;;;8.30;5.90;;;;;;;14.51;60.59;101808.31;4981725;28;20546;-41
2023/05/01 01:31:49;;;;;;;10.30;6.15;;;;;;;14.44;60.80;101807.34;4979231;28;20038;-43
2023/05/01 01:34:24;;;;;;;8.98;6.43;;;;;;;14.42;60.39;101805.56;4981918;28;20425;-42
2023/05/01 01:36:51;;;;;;;7.35;5.80;;;;;;;14.52;60.04;101805.69;4984853;28;20042;-41
2023/05/01 01:39:34;;;;;;;8.00;5.78;;;;;;;14.58;59.73;101791.75;4981890;28;20117;-41
2023/05/01 01:42:03;;;;;;;7.07;5.40;;;;;;;14.61;59.42;101790.06;4985347;28;20038;-41
2023/05/01 01:44:40;;;;;;;8.07;6.25;;;;;;;14.55;59.48;101787.38;4982049;28;20031;-46
2023/05/01 01:47:09;;;;;;;8.30;5.80;;;;;;;14.50;59.57;101789.06;4988098;28;20046;-43
2023/05/01 01:49:37;;;;;;;10.75;5.65;;;;;;;14.53;59.56;101783.81;4984752;28;20084;-42
2023/05/01 01:52:06;;;;;;;8.25;5.60;;;;;;;14.52;59.18;101784.69;4987038;28;20046;-42
2023/05/01 01:54:36;;;;;;;7.78;5.70;;;;;;;14.50;59.23;101775.06;4981985;28;20037;-40
2023/05/01 01:57:03;;;;;;;8.40;5.68;;;;;;;14.46;59.04;101771.50;4984824;28;20038;-40
2023/05/01 01:59:32;;;;;;;7.55;5.65;;;;;;;14.38;59.40;101772.28;4981281;28;20026;-39
2023/05/01 02:01:59;;;;;;;8.02;5.22;;;;;;;14.66;58.60;101774.34;4985549;28;20026;-38
2023/05/01 02:04:27;;;;;;;10.23;5.35;;;;;;;14.59;58.82;101767.28;4981066;28;20038;-43
2023/05/01 02:06:56;;;;;;;6.25;4.75;;;;;;;14.57;58.07;101761.16;4984596;28;20125;-42
2023/05/01 02:09:23;;;;;;;7.97;5.10;;;;;;;14.64;57.72;101762.09;4980299;28;20038;-41
2023/05/01 02:11:50;;;;;;;7.60;4.93;;;;;;;14.76;57.23;101762.22;4984239;28;20254;-43
2023/05/01 02:14:17;;;;;;;9.88;5.30;;;;;;;14.82;56.65;101754.41;4982255;28;20408;-41
2023/05/01 02:16:44;;;;;;;7.28;4.70;;;;;;;14.74;56.79;101751.72;4984512;28;20031;-41
2023/05/01 02:19:11;;;;;;;7.50;5.20;;;;;;;14.81;56.60;101755.28;4984676;28;20173;-40
2023/05/01 02:21:38;;;;;;;7.85;5.32;;;;;;;14.82;56.28;101750.00;4979990;28;20113;-44
2023/05/01 02:24:05;;;;;;;7.28;4.97;;;;;;;14.77;56.27;101750.84;4983718;28;20031;-43
2023/05/01 02:26:37;;;;;;;7.88;5.18;;;;;;;14.77;56.39;101749.09;4997113;23;20429;-43
2023/05/01 02:29:03;;;;;;;8.38;5.38;;;;;;;14.70;56.54;101741.16;4964946;28;20046;-42
2023/05/01 02:31:29;;;;;;;7.85;5.15;;;;;;;14.72;56.75;101732.41;4961331;28;20045;-42
2023/05/01 02:33:54;;;;;;;9.07;5.20;;;;;;;14.68;57.09;101740.25;4966477;28;20039;-46
2023/05/01 02:36:19;;;;;;;7.95;5.32;;;;;;;14.60;57.47;101732.28;4962024;28;20031;-43
2023/05/01 02:38:46;;;;;;;7.03;4.93;;;;;;;14.59;57.51;101738.41;4964805;28;20035;-44
2023/05/01 02:41:14;;;;;;;8.10;5.13;;;;;;;14.57;57.84;101727.91;4959207;28;20042;-44
2023/05/01 02:43:41;;;;;;;8.43;5.20;;;;;;;14.46;57.64;101723.38;4955262;28;20081;-41
2023/05/01 02:46:09;;;;;;;7.97;5.07;;;;;;;14.44;58.43;101722.50;4965762;28;20053;-42
2023/05/01 02:48:37;;;;;;;7.45;5.10;;;;;;;14.56;58.18;101718.28;4961000;28;20042;-43
2023/05/01 02:51:03;;;;;;;7.13;4.97;;;;;;;14.58;58.58;101711.28;4962986;28;20035;-44
2023/05/01 02:53:31;;;;;;;8.50;4.95;;;;;;;14.64;57.91;101713.09;4960693;28;20045;-42
2023/05/01 02:55:57;;;;;;;7.63;4.60;;;;;;;14.67;57.78;101709.63;4963567;28;20041;-43
2023/05/01 02:58:22;;;;;;;6.60;4.90;;;;;;;14.60;57.76;101706.06;4957470;28;20121;-42
2023/05/01 03:00:48;;;;;;;8.02;4.57;;;;;;;14.59;57.63;101702.56;4963242;28;20579;-42
2023/05/01 03:03:14;;;;;;;8.50;4.53;;;;;;;14.72;56.54;101700.03;4962766;28;20094;-47
2023/05/01 03:05:40;;;;;;;10.60;4.70;;;;;;;14.81;56.01;101701.03;4966364;28;20078;-43
2023/05/01 03:08:06;;;;;;;9.00;4.63;;;;;;;14.78;55.96;101700.09;4966171;28;20038;-42
2023/05/01 03:10:31;;;;;;;8.10;4.50;;;;;;;14.78;55.57;101698.34;4963529;28;20038;-41
2023/05/01 03:12:57;;;;;;;6.38;4.60;;;;;;;14.85;55.39;101699.31;4966548;28;20050;-42
2023/05/01 03:15:22;;;;;;;7.95;4.43;;;;;;;14.89;55.25;101698.44;4960843;28;20050;-46
2023/05/01 03:17:47;;;;;;;9.68;4.70;;;;;;;14.88;55.34;101694.94;4963892;28;20472;-45
2023/05/01 03:20:13;;;;;;;8.50;4.93;;;;;;;14.82;55.33;101692.25;4963795;28;20027;-44
2023/05/01 03:22:38;;;;;;;8.52;5.20;;;;;;;14.73;55.65;101686.06;4961970;28;20114;-44
2023/05/01 03:25:04;;;;;;;8.38;5.20;;;;;;;14.61;56.05;101678.94;4965615;28;20043;-42
2023/05/01 03:27:29;;;;;;;8.65;5.20;;;;;;;14.56;56.22;101675.41;4963324;28;20039;-42
2023/05/01 03:29:55;;;;;;;8.55;5.07;;;;;;;14.52;56.44;101681.47;4966704;28;20050;-44
2023/05/01 03:32:21;;;;;;;7.72;4.90;;;;;;;14.53;56.75;101685.84;4962490;28;20038;-40
2023/05/01 03:34:46;;;;;;;8.50;5.20;;;;;;;14.46;56.89;101677.03;4966676;28;20501;-44
2023/05/01 03:37:12;;;;;;;7.80;5.50;;;;;;;14.43;57.09;101671.78;4966156;28;20038;-42
2023/05/01 03:39:37;;;;;;;7.50;5.30;;;;;;;14.38;57.24;101670.88;4963524;28;20049;-44
2023/05/01 03:42:03;;;;;;;7.35;5.40;;;;;;;14.30;57.69;101659.38;4965010;28;20411;-42
2023/05/01 03:44:28;;;;;;;10.07;6.00;;;;;;;14.18;58.23;101669.72;4962474;28;20338;-43
2023/05/01 03:46:53;;;;;;;9.98;5.40;;;;;;;14.16;58.66;101663.56;4966864;28;20042;-42
2023/05/01 03:49:19;;;;;;;8.48;5.63;;;;;;;14.16;58.83;101660.94;4963331;28;20510;-42
2023/05/01 03:51:44;;;;;;;7.03;5.18;;;;;;;14.28;58.39;101663.69;4967193;28;20409;-42
2023/05/01 03:54:09;;;;;;;8.35;5.13;;;;;;;14.33;58.24;101656.78;4964397;28;20050;-38
2023/05/01 03:56:35;;;;;;;9.02;5.55;;;;;;;14.24;58.84;101659.28;4960846;28;20414;-39
2023/05/01 03:59:01;;;;;;;7.60;5.45;;;;;;;14.24;59.34;101664.53;4963459;28;20409;-40
2023/05/01 04:01:26;;;;;;;8.73;5.53;;;;;;;14.26;59.27;101661.94;4959764;28;20034;-39
2023/05/01 04:03:52;;;;;;;9.38;5.07;;;;;;;14.29;59.18;101652.34;4964116;28;20038;-39
2023/05/01 04:06:18;;;;;;;7.47;5.38;;;;;;;14.28;59.44;101668.06;4960062;28;20042;-38
2023/05/01 04:08:44;;;;;;;8.70;5.60;;;;;;;14.29;59.58;101660.22;4964453;28;20038;-39
2023/05/01 04:11:09;;;;;;;11.07;7.90;;;;;;;14.38;59.38;101660.38;4964121;28;20166;-39
2023/05/01 04:13:35;;;;;;;10.68;7.00;;;;;;;14.39;59.37;101661.25;4961388;28;20042;-42
2023/05/01 04:16:00;;;;;;;10.75;8.18;;;;;;;14.43;59.28;101657.78;4965605;28;20278;-38
2023/05/01 04:18:26;;;;;;;10.48;7.28;;;;;;;14.48;59.01;101653.44;4961468;28;20042;-40
2023/05/01 04:20:51;;;;;;;7.57;5.78;;;;;;;14.52;58.85;101655.22;4965266;28;20121;-40
2023/05/01 04:23:17;;;;;;;8.88;6.15;;;;;;;14.54;58.51;101654.41;4959890;28;20058;-44
2023/05/01 04:25:43;;;;;;;9.63;5.90;;;;;;;14.67;58.08;101652.78;4964166;28;20043;-43
2023/05/01 04:28:12;;;;;;;11.00;5.68;;;;;;;14.64;57.96;101647.47;4964416;28;20066;-37
2023/05/01 04:30:38;;;;;;;7.88;5.40;;;;;;;14.70;57.75;101651.94;4961067;28;20062;-38
2023/05/01 04:33:10;;;;;;;7.30;5.15;;;;;;;14.81;57.66;101648.53;4964615;28;20038;-39
2023/05/01 04:35:38;;;;;;;7.45;5.47;;;;;;;14.84;57.42;101650.28;4960519;28;20100;-37
2023/05/01 04:38:05;;;;;;;8.95;5.43;;;;;;;14.85;57.29;101645.03;4964755;28;20034;-42
2023/05/01 04:40:30;;;;;;;9.95;5.57;;;;;;;14.72;57.43;101645.81;4944607;28;20122;-42
2023/05/01 04:42:56;;;;;;;7.90;5.07;;;;;;;14.86;57.33;101644.19;4965893;28;20135;-38
2023/05/01 04:45:21;;;;;;;8.43;5.18;;;;;;;14.99;56.33;101640.78;4963198;28;20031;-39
2023/05/01 04:47:46;;;;;;;7.50;5.18;;;;;;;14.92;56.56;101640.72;4967026;28;20046;-42
2023/05/01 04:50:12;;;;;;;8.98;5.30;;;;;;;14.92;56.78;101643.34;4968493;28;20803;-38
2023/05/01 04:52:37;;;;;;;10.80;5.20;;;;;;;14.91;56.87;101645.09;4963094;28;20042;-39
2023/05/01 04:55:03;;;;;;;8.95;5.00;;;;;;;14.90;56.54;101645.06;4971308;28;20110;-38
2023/05/01 04:57:28;;;;;;;6.20;4.43;;;;;;;15.05;56.36;101636.44;4966856;28;20035;-40
2023/05/01 04:59:54;;;;;;;8.15;4.90;;;;;;;15.14;55.95;101644.38;4971073;28;20065;-38
2023/05/01 05:02:19;;;;;;;10.43;4.97;;;;;;;15.05;55.99;101644.34;4967580;28;20058;-42
2023/05/01 05:04:44;;;;;;;7.72;4.47;;;;;;;14.98;56.25;101640.78;4968940;28;20114;-38
2023/05/01 05:07:10;;;;;;;8.98;4.97;;;;;;;14.95;56.52;101639.00;4966287;28;20084;-40
2023/05/01 05:09:35;;;;;;;9.40;5.00;;;;;;;15.04;56.21;101646.06;4961373;28;20057;-39
2023/05/01 05:12:03;;;;;;;6.47;4.43;;;;;;;15.17;55.85;101640.03;4965748;28;20560;-39
2023/05/01 05:14:28;;;;;;;8.32;4.68;;;;;;;15.21;55.35;101636.56;4962765;28;20035;-38
2023/05/01 05:16:54;;;;;;;7.90;4.65;;;;;;;15.33;54.67;101639.25;4966645;28;20045;-38
2023/05/01 05:19:19;;;;;;;8.75;5.18;;;;;;;15.48;54.30;101637.59;4963384;28;20306;-38
2023/05/01 05:21:44;;;;;;;9.50;4.90;;;;;;;15.50;54.34;101638.47;4968571;28;20151;-40
2023/05/01 05:24:10;;;;;;;8.82;4.97;;;;;;;15.64;53.72;101642.09;4966946;28;20037;-38
2023/05/01 05:26:35;;;;;;;7.85;4.55;;;;;;;15.51;53.00;101641.13;4964335;28;20050;-39
2023/05/01 05:29:00;;;;;;;9.98;5.03;;;;;;;15.63;52.20;101650.84;4967326;28;20100;-43
2023/05/01 05:31:26;;;;;;;9.98;4.60;;;;;;;15.77;52.77;101644.78;4964807;28;20166;-38
2023/05/01 05:33:51;;;;;;;8.10;4.50;;;;;;;15.79;52.09;101644.81;4968761;28;20043;-38
2023/05/01 05:36:17;;;;;;;10.10;5.00;;;;;;;15.69;52.38;101641.25;4964675;28;20034;-39
2023/05/01 05:38:42;;;;;;;10.85;5.18;;;;;;;15.62;51.81;101642.06;4966634;28;20038;-38
2023/05/01 05:41:08;;;;;;;8.57;4.93;;;;;;;15.93;51.58;101639.56;4969264;28;20034;-38
2023/05/01 05:43:33;;;;;;;8.63;4.95;;;;;;;16.01;51.17;101643.13;4964648;28;20077;-43
2023/05/01 05:45:59;;;;;;;9.27;5.00;;;;;;;16.07;51.00;101640.50;4967047;28;20089;-38
2023/05/01 05:48:25;;;;;;;9.57;4.93;;;;;;;16.15;51.32;101636.16;4961453;28;20031;-40
2023/05/01 05:50:51;;;;;;;9.07;5.40;;;;;;;15.95;50.79;101636.09;4965969;28;20062;-38
2023/05/01 05:53:17;;;;;;;8.90;4.90;;;;;;;16.15;51.06;101634.41;4962166;28;20054;-39
2023/05/01 05:55:44;;;;;;;10.98;5.22;;;;;;;16.31;50.83;101637.06;4965014;28;20030;-40
2023/05/01 05:58:10;;;;;;;8.52;5.10;;;;;;;16.28;51.10;101630.06;4967987;28;20042;-37
2023/05/01 06:00:35;;;;;;;10.23;5.30;;;;;;;16.31;51.31;101624.78;4964610;28;20088;-38
2023/05/01 06:03:01;;;;;;;8.07;5.07;;;;;;;16.42;51.37;101624.78;4968967;28;20580;-38
2023/05/01 06:05:26;;;;;;;9.93;5.40;;;;;;;16.53;51.00;101621.28;4964521;28;20042;-39
2023/05/01 06:07:52;;;;;;;10.65;5.35;;;;;;;16.61;50.89;101618.72;4968612;28;20062;-38
2023/05/01 06:10:18;;;;;;;9.60;5.03;;;;;;;16.65;50.50;101625.72;4965039;28;20035;-38
2023/05/01 06:12:43;;;;;;;8.10;5.13;;;;;;;16.60;50.75;101620.47;4967986;28;20125;-40
2023/05/01 06:15:09;;;;;;;11.75;4.93;;;;;;;16.88;49.89;101626.63;4967949;28;20042;-39
2023/05/01 06:17:36;;;;;;;9.68;5.03;;;;;;;16.93;49.78;101621.34;4963936;28;21594;-38
2023/05/01 06:20:04;;;;;;;9.73;5.63;;;;;;;16.84;49.35;101619.56;4967439;28;20037;-40
2023/05/01 06:22:29;;;;;;;11.02;5.47;;;;;;;16.83;49.23;101609.91;4964412;28;20056;-39
2023/05/01 06:24:55;;;;;;;10.77;5.40;;;;;;;16.96;49.05;101616.06;4966782;28;20034;-38
2023/05/01 06:27:20;;;;;;;8.98;5.40;;;;;;;16.95;49.04;101625.75;4963984;28;20039;-41
2023/05/01 06:29:46;;;;;;;12.63;5.38;;;;;;;16.99;49.73;101622.22;4967315;28;20041;-38
2023/05/01 06:32:11;;;;;;;10.10;5.38;;;;;;;17.19;48.60;101626.59;4966467;28;20114;-37
2023/05/01 06:34:36;;;;;;;11.07;5.10;;;;;;;17.21;48.66;101624.81;4964658;28;20031;-39
2023/05/01 06:37:04;;;;;;;8.43;5.25;;;;;;;17.05;48.22;101626.59;4967037;28;20038;-43
2023/05/01 06:39:29;;;;;;;9.52;5.40;;;;;;;16.96;48.40;101621.31;4963275;28;20082;-39
2023/05/01 06:41:55;;;;;;;11.45;5.32;;;;;;;17.07;48.21;101621.34;4966583;28;20027;-39
2023/05/01 06:44:20;;;;;;;11.45;5.30;;;;;;;16.97;48.08;101617.81;4962943;28;20121;-39
2023/05/01 06:46:46;;;;;;;12.48;5.32;;;;;;;17.05;47.83;101618.69;4967901;28;20453;-39
2023/05/01 06:49:11;;;;;;;8.52;5.10;;;;;;;17.24;48.02;101627.44;4967341;28;20035;-39
2023/05/01 06:51:36;;;;;;;12.77;5.38;;;;;;;17.02;48.36;101619.56;4963766;28;21341;-41
2023/05/01 06:54:02;;;;;;;9.15;5.35;;;;;;;16.92;48.56;101624.84;4967225;28;20039;-38
2023/05/01 06:56:27;;;;;;;10.27;5.55;;;;;;;17.11;48.48;101628.34;4962811;28;20157;-40
2023/05/01 06:58:52;;;;;;;9.75;5.43;;;;;;;17.17;47.86;101623.06;4965022;28;20117;-38
2023/05/01 07:01:18;;;;;;;11.65;5.45;;;;;;;17.32;47.36;101620.41;4960386;28;20030;-38
2023/05/01 07:03:43;;;;;;;9.38;5.40;;;;;;;17.38;47.75;101628.31;4967178;28;20037;-42
2023/05/01 07:06:09;;;;;;;9.23;4.95;;;;;;;17.52;47.15;101622.97;4966341;28;20106;-39
2023/05/01 07:08:34;;;;;;;10.98;5.50;;;;;;;17.30;47.29;101630.06;4951035;28;20133;-38
2023/05/01 07:11:00;;;;;;;10.63;6.00;;;;;;;17.17;48.43;101629.22;4945125;28;20046;-39
2023/05/01 07:13:26;;;;;;;10.70;5.40;;;;;;;17.32;48.46;101628.31;4943217;28;20110;-38
2023/05/01 07:15:52;;;;;;;8.93;5.22;;;;;;;17.59;47.25;101629.97;4945861;28;20065;-39
2023/05/01 07:18:17;;;;;;;10.02;5.00;;;;;;;17.74;46.34;101627.34;4943460;28;20039;-44
2023/05/01 07:20:43;;;;;;;10.48;5.53;;;;;;;17.69;46.17;101632.59;4946125;28;20043;-39
2023/05/01 07:23:09;;;;;;;10.40;5.90;;;;;;;16.95;49.24;101627.50;4944827;28;20461;-41
2023/05/01 07:25:36;;;;;;;11.23;5.80;;;;;;;17.18;49.40;101633.59;4942541;28;20035;-40
2023/05/01 07:28:03;;;;;;;9.27;5.55;;;;;;;17.45;48.61;101627.38;4946134;28;20035;-41
2023/05/01 07:30:29;;;;;;;10.15;5.78;;;;;;;17.64;47.04;101623.84;4941968;28;20031;-41
2023/05/01 07:32:56;;;;;;;10.77;5.80;;;;;;;17.89;46.04;101621.09;4946181;28;20074;-39
2023/05/01 07:35:21;;;;;;;10.43;5.80;;;;;;;17.93;46.51;101622.84;4941525;28;20118;-42
2023/05/01 07:37:50;;;;;;;10.13;5.82;;;;;;;17.99;46.54;101613.13;4946228;28;20545;-41
2023/05/01 07:40:15;;;;;;;11.55;6.10;;;;;;;18.04;45.69;101616.63;4943509;28;20039;-37
2023/05/01 07:42:41;;;;;;;11.98;5.88;;;;;;;18.14;45.84;101622.72;4946047;28;20094;-39
2023/05/01 07:45:07;;;;;;;18.58;6.45;;;;;;;18.22;45.36;101615.66;4946115;28;20406;-38
2023/05/01 07:47:33;;;;;;;11.98;5.95;;;;;;;18.44;45.68;101626.94;4941714;28;20126;-40
2023/05/01 07:49:59;;;;;;;14.73;5.90;;;;;;;18.74;44.72;101625.84;4945603;28;20043;-38
2023/05/01 07:52:25;;;;;;;10.40;5.72;;;;;;;19.11;43.18;101626.41;4938754;28;20038;-38
2023/05/01 07:54:51;;;;;;;10.70;5.70;;;;;;;19.46;42.92;101613.72;4941352;28;20031;-38
2023/05/01 07:57:16;;;;;;;12.75;6.13;;;;;;;19.38;43.87;101623.50;4940395;28;20042;-40
2023/05/01 07:59:42;;;;;;;10.93;5.90;;;;;;;18.91;44.64;101611.59;4944281;28;20040;-40
2023/05/01 08:02:07;;;;;;;11.00;6.55;;;;;;;18.85;44.59;101618.72;4944746;28;20477;-41
2023/05/01 08:04:32;;;;;;;11.60;6.07;;;;;;;19.14;44.86;101613.19;4941454;28;20054;-40
2023/05/01 08:06:58;;;;;;;11.75;6.50;;;;;;;19.36;43.16;101618.22;4943921;28;20039;-37
2023/05/01 08:09:23;;;;;;;12.73;6.85;;;;;;;18.78;44.03;101622.31;4940826;28;20238;-40
2023/05/01 08:11:49;;;;;;;11.10;7.03;;;;;;;18.72;44.29;101627.66;4944131;28;20039;-40
2023/05/01 08:14:16;;;;;;;14.60;6.78;;;;;;;18.80;44.73;101633.72;4941406;28;20043;-42
2023/05/01 08:16:42;;;;;;;12.63;6.88;;;;;;;18.68;44.98;101631.19;4941381;28;20039;-39
2023/05/01 08:19:07;;;;;;;12.75;6.63;;;;;;;19.09;44.74;101633.50;4942725;28;20142;-38
2023/05/01 08:21:33;;;;;;;13.85;7.07;;;;;;;18.62;45.71;101634.75;4941358;28;20038;-39
2023/05/01 08:23:58;;;;;;;12.45;6.88;;;;;;;18.78;45.60;101628.47;4943817;28;20055;-42
2023/05/01 08:26:23;;;;;;;12.10;6.84;;;;;;;19.18;45.32;101636.03;4918786;23;1088752;-44
2023/05/01 08:28:49;;;;;;;13.55;6.72;;;;;;;18.66;45.72;101644.44;4964596;28;20042;-47
2023/05/01 08:31:15;;;;;;;10.85;6.93;;;;;;;18.72;45.07;101639.09;4964889;28;20035;-45
2023/05/01 08:33:41;;;;;;;12.13;7.38;;;;;;;18.69;44.87;101635.59;4967598;28;20045;-43
2023/05/01 08:36:08;;;;;;;15.90;7.10;;;;;;;18.56;45.85;101640.09;4968103;28;20510;-44
2023/05/01 08:38:34;;;;;;;18.55;7.43;;;;;;;18.43;46.29;101646.28;4945001;28;20163;-42
2023/05/01 08:41:00;;;;;;;16.55;7.15;;;;;;;18.08;47.03;101642.13;4946791;28;20082;-42
2023/05/01 08:43:29;;;;;;;14.20;7.20;;;;;;;18.37;47.30;101649.84;4945361;28;20031;-46
2023/05/01 08:45:56;;;;;;;12.30;7.10;;;;;;;18.46;47.50;101654.22;4948150;28;20046;-46
2023/05/01 08:48:23;;;;;;;13.00;7.47;;;;;;;18.21;50.47;101657.00;4945329;28;20050;-45
2023/05/01 08:50:49;;;;;;;15.45;7.60;;;;;;;17.60;53.13;101656.38;4948504;28;20051;-45
2023/05/01 08:53:16;;;;;;;15.32;7.60;;;;;;;17.28;53.62;101664.31;4945642;28;20493;-42
2023/05/01 08:55:46;;;;;;;14.27;7.85;;;;;;;17.08;53.64;101662.63;4947468;28;20043;-42
2023/05/01 08:58:13;;;;;;;13.13;7.93;;;;;;;17.35;54.05;101673.97;4947472;28;20035;-45
2023/05/01 09:00:40;;;;;;;13.43;8.02;;;;;;;17.34;53.92;101672.22;4945446;28;20039;-44
2023/05/01 09:03:10;;;;;;;15.18;7.95;;;;;;;17.84;52.30;101664.22;4948405;28;20031;-42
2023/05/01 09:05:35;;;;;;;15.18;8.20;;;;;;;17.60;53.57;101660.75;4944885;28;20642;-42
2023/05/01 09:08:01;;;;;;;14.30;8.10;;;;;;;17.74;53.24;101670.41;4948214;28;20118;-47
2023/05/01 09:10:26;;;;;;;12.48;7.60;;;;;;;17.61;54.10;101673.09;4945061;28;20114;-42
2023/05/01 09:12:58;;;;;;;18.52;8.95;;;;;;;17.38;56.38;101681.03;4947960;28;20449;-42
2023/05/01 09:15:25;;;;;;;17.35;8.77;;;;;;;17.38;56.72;101683.66;4944666;28;20470;-46
2023/05/01 09:17:51;;;;;;;21.20;9.65;;;;;;;17.08;57.61;101684.53;4962925;28;20062;-45
2023/05/01 09:20:18;;;;;;;14.35;9.23;;;;;;;17.22;58.53;101689.81;4945155;28;20082;-44
2023/05/01 09:22:43;;;;;;;15.35;9.30;;;;;;;16.98;58.69;101685.44;4948154;28;20051;-46
2023/05/01 09:25:12;;;;;;;12.75;9.13;;;;;;;17.16;58.69;101688.06;4948038;28;20102;-42
2023/05/01 09:27:37;;;;;;;17.52;9.75;;;;;;;17.31;58.36;101684.53;4944734;28;20043;-47
2023/05/01 09:30:05;;;;;;;17.35;10.27;;;;;;;16.77;59.83;101699.44;4947670;28;20086;-42
2023/05/01 09:32:31;;;;;;;16.55;9.60;;;;;;;16.83;60.63;101690.72;4942970;28;20043;-43
2023/05/01 09:35:13;;;;;;;17.00;10.32;;;;;;;16.84;59.23;101695.06;4948426;28;20130;-43
2023/05/01 09:37:39;;;;;;;19.30;10.57;;;;;;;16.53;61.50;101700.25;4943331;28;20652;-45
2023/05/01 09:40:05;;;;;;;20.15;10.85;;;;;;;16.55;61.45;101698.53;4946464;28;20489;-43
2023/05/01 09:42:31;;;;;;;17.08;10.52;;;;;;;16.13;61.86;101698.41;4944872;28;20058;-43
2023/05/01 09:44:59;;;;;;;17.95;10.52;;;;;;;16.29;61.88;101697.56;4947479;28;20047;-45
2023/05/01 09:47:27;;;;;;;18.95;11.63;;;;;;;16.20;62.81;101706.34;4944197;28;20043;-41
2023/05/01 09:49:52;;;;;;;17.77;9.95;;;;;;;16.34;61.94;101701.13;4948286;28;20069;-45
2023/05/01 09:52:18;;;;;;;20.70;10.50;;;;;;;16.15;62.86;101710.69;4945104;28;20046;-44
2023/05/01 09:54:43;;;;;;;17.05;9.80;;;;;;;16.30;62.73;101706.34;4947834;28;20039;-43
2023/05/01 09:57:08;;;;;;;19.25;9.90;;;;;;;16.10;63.34;101709.78;4947649;28;20110;-45
2023/05/01 09:59:34;;;;;;;18.02;9.75;;;;;;;16.17;63.74;101713.31;4943774;28;20058;-43
2023/05/01 10:02:00;;;;;;;18.45;9.63;;;;;;;15.93;64.68;101719.34;4947750;28;20529;-48
2023/05/01 10:04:32;;;;;;;15.23;9.55;;;;;;;15.92;65.36;101725.47;4943947;28;20054;-40
2023/05/01 10:07:12;;;;;;;14.30;8.52;;;;;;;16.18;65.02;101722.97;4962059;28;20474;-48
2023/05/01 10:09:37;;;;;;;14.73;8.88;;;;;;;16.26;64.29;101726.53;4962564;28;20129;-42
2023/05/01 10:12:03;;;;;;;13.43;8.52;;;;;;;16.34;64.50;101721.28;4948825;28;20031;-44
2023/05/01 10:14:29;;;;;;;14.07;8.02;;;;;;;16.52;64.17;101716.06;4944069;28;20035;-45
2023/05/01 10:16:58;;;;;;;15.77;8.20;;;;;;;16.51;63.72;101716.94;4962252;28;20390;-44
2023/05/01 10:19:23;;;;;;;13.98;7.78;;;;;;;16.47;63.94;101712.53;4951712;28;20062;-44
2023/05/01 10:21:49;;;;;;;12.02;8.00;;;;;;;16.27;64.87;101712.50;4953299;28;20028;-45
2023/05/01 10:24:15;;;;;;;14.50;8.20;;;;;;;16.00;65.13;101722.88;4945620;28;20532;-48
2023/05/01 10:26:42;;;;;;;12.68;8.10;;;;;;;16.44;64.25;101716.06;4950566;28;20474;-46
2023/05/01 10:29:08;;;;;;;13.07;7.90;;;;;;;16.53;63.56;101710.78;4954530;28;20163;-43
2023/05/01 10:31:34;;;;;;;12.70;8.15;;;;;;;16.43;63.15;101714.28;4950714;28;20052;-42
2023/05/01 10:34:00;;;;;;;13.95;8.02;;;;;;;16.52;62.96;101722.22;4947779;28;20035;-43
2023/05/01 10:36:33;;;;;;;15.48;8.23;;;;;;;16.60;63.29;101719.63;4945165;28;20035;-44
2023/05/01 10:38:59;;;;;;;11.93;7.85;;;;;;;16.42;63.45;101717.78;4947850;28;20576;-46
2023/05/01 10:42:03;;;;;;;15.80;8.02;;;;;;;16.45;63.57;101722.19;4943713;28;20079;-44
2023/05/01 10:44:28;;;;;;;13.48;7.93;;;;;;;16.11;63.57;101729.06;4943555;28;20035;-43
2023/05/01 10:46:54;;;;;;;13.48;7.75;;;;;;;16.09;63.15;101730.84;4948809;28;20039;-44
2023/05/01 10:49:20;;;;;;;14.55;8.15;;;;;;;16.40;63.50;101729.22;4941399;28;20043;-44
2023/05/01 10:52:00;;;;;;;12.85;7.35;;;;;;;16.49;63.24;101730.09;4947921;28;20039;-44
2023/05/01 10:54:30;;;;;;;12.07;7.55;;;;;;;16.44;64.17;101725.69;4942405;28;20039;-43
2023/05/01 10:57:00;;;;;;;11.98;7.45;;;;;;;16.62;63.91;101718.75;4947668;28;20043;-45
2023/05/01 10:59:46;;;;;;;12.10;7.38;;;;;;;16.72;62.26;101718.75;4945164;28;20027;-44
2023/05/01 11:02:21;;;;;;;11.93;7.28;;;;;;;17.21;61.66;101720.56;4949945;28;20040;-47
2023/05/01 11:04:50;;;;;;;10.20;7.20;;;;;;;17.26;61.77;101715.31;4947251;28;20039;-44
2023/05/01 11:07:19;;;;;;;12.10;7.53;;;;;;;17.10;61.34;101718.78;4944057;28;20046;-45
2023/05/01 11:10:00;;;;;;;14.43;7.65;;;;;;;17.08;60.74;101715.31;4950346;28;20050;-47
2023/05/01 11:12:47;;;;;;;13.60;8.15;;;;;;;17.25;61.85;101722.31;4946763;28;20090;-43
2023/05/01 11:15:33;;;;;;;13.02;7.13;;;;;;;17.60;60.77;101719.66;4947547;28;20178;-44
2023/05/01 11:18:00;;;;;;;10.88;6.80;;;;;;;17.97;57.32;101709.00;4945417;28;20417;-43
2023/05/01 11:20:25;;;;;;;11.32;6.80;;;;;;;18.35;56.45;101715.00;4943757;28;20042;-43
2023/05/01 11:22:52;;;;;;;10.95;6.85;;;;;;;18.45;55.20;101703.50;4949030;28;20039;-43